Fu Ning Wan — VRDN9 — position and weather

sailwx.info

Track history (hours):
 
Tides and Currents Weather Stations Pressure Air Temp Water Temp Dewpoint Dewpoint Depression Visibility Wind Speed Wind Dir Waves Ship Positions

Fu Ning Wan

Last reported at 2018-Apr-10 18:28 UTC. Time now 2018-Apr-20 11:00 UTC.
Position N 01°13' E 103°55'.
Warning: this ship's position is 9 days out of date.

Length 107 m; draft 6.5 m.

Type: Tanker. MMSI: 477003600.

Date/timePositionNaut miles runAvg speedWind from/ knotsBaromVisibWave heightAir tempDewpointWater temp
2018-Apr-10 18:28N 01°13' E 103°55'5 9.4
2018-Apr-10 17:59N 01°11' E 103°51'3 6.0
2018-Apr-10 17:30N 01°12' E 103°48'2 3.9
2018-Apr-10 17:00N 01°14' E 103°47'0 0.0
2018-Apr-10 16:23N 01°14' E 103°47'0 0.0
2018-Apr-10 15:53N 01°14' E 103°47'0 0.0
2018-Apr-10 15:23N 01°14' E 103°47'0 0.0
2018-Apr-10 14:53N 01°14' E 103°47'0 0.0
2018-Apr-10 14:23N 01°14' E 103°47'0 0.0
2018-Apr-10 13:56N 01°14' E 103°47'0 0.0
2018-Apr-10 13:26N 01°14' E 103°47'0 0.0
2018-Apr-10 11:56N 01°14' E 103°47'0 0.0
2018-Apr-10 11:26N 01°14' E 103°47'0 0.0
2018-Apr-10 10:59N 01°14' E 103°47'0 0.0
2018-Apr-10 10:02N 01°14' E 103°47'0 0.0
2018-Apr-10 09:56N 01°14' E 103°47'0 0.0
2018-Apr-10 09:20N 01°14' E 103°47'0 0.0
2018-Apr-10 08:59N 01°14' E 103°47'0 0.0
2018-Apr-10 08:29N 01°14' E 103°47'0 0.0
2018-Apr-10 07:56N 01°14' E 103°47'0 0.0
2018-Apr-10 07:29N 01°14' E 103°47'0 0.0
2018-Apr-10 06:41N 01°14' E 103°47'0 0.0
2018-Apr-10 06:11N 01°14' E 103°47'0 0.0
2018-Apr-10 05:47N 01°14' E 103°47'0 0.0
2018-Apr-10 05:29N 01°14' E 103°47'0 0.0
2018-Apr-10 04:56N 01°14' E 103°47'0 0.0
2018-Apr-10 04:29N 01°14' E 103°47'0 0.0
2018-Apr-10 03:47N 01°14' E 103°47'0 0.0
2018-Apr-10 03:26N 01°14' E 103°47'0 0.0
2018-Apr-10 02:59N 01°14' E 103°47'0 0.0
2018-Apr-10 00:56N 01°14' E 103°47'0 0.0
2018-Apr-10 00:26N 01°14' E 103°47'0 0.0
2018-Apr-09 23:53N 01°14' E 103°47'0 0.0
2018-Apr-09 23:29N 01°14' E 103°47'0 0.0
2018-Apr-09 21:44N 01°14' E 103°47'0 0.0
2018-Apr-09 21:29N 01°14' E 103°47'0 0.0
2018-Apr-09 20:59N 01°14' E 103°47'0 0.0
2018-Apr-09 20:17N 01°14' E 103°47'0 0.0
2018-Apr-09 19:56N 01°14' E 103°47'0 0.0
2018-Apr-09 19:29N 01°14' E 103°47'0 0.0
2018-Apr-09 18:56N 01°14' E 103°47'0 0.0
2018-Apr-09 18:29N 01°14' E 103°47'0 0.0
2018-Apr-09 17:59N 01°14' E 103°47'0 0.0
2018-Apr-09 16:35N 01°14' E 103°47'0 0.0
2018-Apr-09 15:20N 01°14' E 103°47'0 0.0
2018-Apr-09 14:59N 01°14' E 103°47'0 0.0
2018-Apr-09 13:23N 01°14' E 103°47'0 0.0
2018-Apr-09 12:53N 01°14' E 103°47'0 0.0
2018-Apr-09 12:17N 01°14' E 103°47'0 0.0
2018-Apr-09 11:59N 01°14' E 103°47'0 0.0
2018-Apr-09 11:20N 01°14' E 103°47'0 0.0
2018-Apr-09 10:59N 01°14' E 103°47'0 0.1
2018-Apr-09 10:30N 01°14' E 103°47'1 1.3
2018-Apr-09 10:00N 01°14' E 103°47'2 4.8
2018-Apr-09 09:30N 01°13' E 103°50'0 0.5
2018-Apr-09 08:56N 01°13' E 103°50'0 0.0
2018-Apr-09 08:23N 01°13' E 103°50'0 0.0
2018-Apr-09 07:59N 01°13' E 103°50'1 1.6
2018-Apr-09 07:30N 01°12' E 103°50'511.0
2018-Apr-09 07:00N 01°14' E 103°55'  
Track history (hours):
 
Tides and Currents Weather Stations Pressure Air Temp Water Temp Dewpoint Dewpoint Depression Visibility Wind Speed Wind Dir Waves Ship Positions

Fu Ning Wan

Last reported at 2018-Apr-10 18:28 UTC. Time now 2018-Apr-20 11:00 UTC.
Position N 01°13' E 103°55'.
Warning: this ship's position is 9 days out of date.

Length 107 m; draft 6.5 m.

Type: Tanker. MMSI: 477003600.

Date/timePositionNaut miles runAvg speedWind from/ knotsBaromVisibWave heightAir tempDewpointWater temp
2018-Apr-10 18:28N 01°13' E 103°55'5 9.4
2018-Apr-10 17:59N 01°11' E 103°51'3 6.0
2018-Apr-10 17:30N 01°12' E 103°48'2 3.9
2018-Apr-10 17:00N 01°14' E 103°47'0 0.0
2018-Apr-10 16:23N 01°14' E 103°47'0 0.0
2018-Apr-10 15:53N 01°14' E 103°47'0 0.0
2018-Apr-10 15:23N 01°14' E 103°47'0 0.0
2018-Apr-10 14:53N 01°14' E 103°47'0 0.0
2018-Apr-10 14:23N 01°14' E 103°47'0 0.0
2018-Apr-10 13:56N 01°14' E 103°47'0 0.0
2018-Apr-10 13:26N 01°14' E 103°47'0 0.0
2018-Apr-10 11:56N 01°14' E 103°47'0 0.0
2018-Apr-10 11:26N 01°14' E 103°47'0 0.0
2018-Apr-10 10:59N 01°14' E 103°47'0 0.0
2018-Apr-10 10:02N 01°14' E 103°47'0 0.0
2018-Apr-10 09:56N 01°14' E 103°47'0 0.0
2018-Apr-10 09:20N 01°14' E 103°47'0 0.0
2018-Apr-10 08:59N 01°14' E 103°47'0 0.0
2018-Apr-10 08:29N 01°14' E 103°47'0 0.0
2018-Apr-10 07:56N 01°14' E 103°47'0 0.0
2018-Apr-10 07:29N 01°14' E 103°47'0 0.0
2018-Apr-10 06:41N 01°14' E 103°47'0 0.0
2018-Apr-10 06:11N 01°14' E 103°47'0 0.0
2018-Apr-10 05:47N 01°14' E 103°47'0 0.0
2018-Apr-10 05:29N 01°14' E 103°47'0 0.0
2018-Apr-10 04:56N 01°14' E 103°47'0 0.0
2018-Apr-10 04:29N 01°14' E 103°47'0 0.0
2018-Apr-10 03:47N 01°14' E 103°47'0 0.0
2018-Apr-10 03:26N 01°14' E 103°47'0 0.0
2018-Apr-10 02:59N 01°14' E 103°47'0 0.0
2018-Apr-10 00:56N 01°14' E 103°47'0 0.0
2018-Apr-10 00:26N 01°14' E 103°47'0 0.0
2018-Apr-09 23:53N 01°14' E 103°47'0 0.0
2018-Apr-09 23:29N 01°14' E 103°47'0 0.0
2018-Apr-09 21:44N 01°14' E 103°47'0 0.0
2018-Apr-09 21:29N 01°14' E 103°47'0 0.0
2018-Apr-09 20:59N 01°14' E 103°47'0 0.0
2018-Apr-09 20:17N 01°14' E 103°47'0 0.0
2018-Apr-09 19:56N 01°14' E 103°47'0 0.0
2018-Apr-09 19:29N 01°14' E 103°47'0 0.0
2018-Apr-09 18:56N 01°14' E 103°47'0 0.0
2018-Apr-09 18:29N 01°14' E 103°47'0 0.0
2018-Apr-09 17:59N 01°14' E 103°47'0 0.0
2018-Apr-09 16:35N 01°14' E 103°47'0 0.0
2018-Apr-09 15:20N 01°14' E 103°47'0 0.0
2018-Apr-09 14:59N 01°14' E 103°47'0 0.0
2018-Apr-09 13:23N 01°14' E 103°47'0 0.0
2018-Apr-09 12:53N 01°14' E 103°47'0 0.0
2018-Apr-09 12:17N 01°14' E 103°47'0 0.0
2018-Apr-09 11:59N 01°14' E 103°47'0 0.0
2018-Apr-09 11:20N 01°14' E 103°47'0 0.0
2018-Apr-09 10:59N 01°14' E 103°47'0 0.1
2018-Apr-09 10:30N 01°14' E 103°47'1 1.3
2018-Apr-09 10:00N 01°14' E 103°47'2 4.8
2018-Apr-09 09:30N 01°13' E 103°50'0 0.5
2018-Apr-09 08:56N 01°13' E 103°50'0 0.0
2018-Apr-09 08:23N 01°13' E 103°50'0 0.0
2018-Apr-09 07:59N 01°13' E 103°50'1 1.6
2018-Apr-09 07:30N 01°12' E 103°50'511.0
2018-Apr-09 07:00N 01°14' E 103°55'  

Dump ship's entire track history